Time;durP1;ratioP1;P1;durP2;ratioP2;P2;SDS_P1;SDS_P2;PMS_P1;PMS_P2;Temp;Humidity;BMP_temperature;BMP_pressure;BME280_temperature;BME280_humidity;BME280_pressure;Samples;Min_cycle;Max_cycle;Signal;HPM_P1;HPM_P2
2023/12/11 00:00:44;;;;;;;2.20;1.30;;;14.00;87.00;;;;;;5088924;28;20469;-64
2023/12/11 00:03:11;;;;;;;2.83;1.30;;;14.00;87.30;;;;;;5095656;28;20829;-64
2023/12/11 00:05:39;;;;;;;1.73;1.17;;;14.00;87.40;;;;;;5100573;28;20850;-63
2023/12/11 00:08:06;;;;;;;0.90;0.90;;;14.10;87.80;;;;;;5113513;28;20576;-63
2023/12/11 00:10:35;;;;;;;1.67;0.80;;;14.10;88.00;;;;;;5114388;28;20466;-64
2023/12/11 00:13:02;;;;;;;2.00;0.80;;;14.10;87.90;;;;;;5109305;28;20441;-64
2023/12/11 00:15:29;;;;;;;2.93;0.90;;;14.10;87.90;;;;;;5061433;28;20465;-64
2023/12/11 00:17:56;;;;;;;2.10;1.10;;;14.00;87.70;;;;;;5113009;28;20468;-64
2023/12/11 00:20:23;;;;;;;1.10;0.90;;;14.10;87.80;;;;;;5114275;28;20466;-63
2023/12/11 00:22:50;;;;;;;2.00;1.13;;;14.10;88.10;;;;;;5109406;28;20466;-63
2023/12/11 00:25:17;;;;;;;2.93;1.13;;;14.10;88.00;;;;;;5076783;28;21107;-63
2023/12/11 00:27:46;;;;;;;2.63;0.90;;;14.10;87.80;;;;;;5112104;28;20500;-64
2023/12/11 00:30:14;;;;;;;1.90;1.00;;;14.10;87.60;;;;;;5113852;28;20521;-63
2023/12/11 00:32:40;;;;;;;1.07;0.83;;;14.10;87.30;;;;;;5103657;28;20449;-63
2023/12/11 00:35:09;;;;;;;0.53;0.53;;;14.10;87.60;;;;;;5087500;28;20466;-62
2023/12/11 00:37:36;;;;;;;1.47;0.90;;;14.10;87.90;;;;;;5109502;28;20526;-64
2023/12/11 00:40:03;;;;;;;1.27;0.83;;;14.10;88.20;;;;;;5107245;28;20527;-63
2023/12/11 00:42:30;;;;;;;1.97;0.70;;;14.10;89.10;;;;;;5099585;28;20837;-64
2023/12/11 00:44:58;;;;;;;2.10;1.63;;;14.00;89.20;;;;;;5113501;28;20515;-64
2023/12/11 00:47:25;;;;;;;1.10;0.80;;;14.10;89.50;;;;;;5109906;28;20889;-64
2023/12/11 00:49:52;;;;;;;1.57;1.17;;;14.10;90.00;;;;;;5106398;28;20533;-64
2023/12/11 00:52:19;;;;;;;1.43;1.07;;;14.10;90.00;;;;;;5107581;28;20533;-64
2023/12/11 00:54:46;;;;;;;2.00;0.97;;;14.00;90.00;;;;;;5100170;28;20516;-64
2023/12/11 00:57:12;;;;;;;1.93;0.80;;;14.10;89.70;;;;;;5109672;28;20538;-64
2023/12/11 00:59:40;;;;;;;1.30;1.00;;;14.00;89.60;;;;;;5105452;28;20521;-63
2023/12/11 01:02:08;;;;;;;2.40;1.13;;;14.00;89.50;;;;;;5103855;28;20446;-64
2023/12/11 01:04:35;;;;;;;1.37;0.70;;;14.00;89.60;;;;;;5092812;28;20438;-64
2023/12/11 01:07:02;;;;;;;0.80;0.80;;;14.10;89.50;;;;;;5097140;28;20524;-63
2023/12/11 01:09:29;;;;;;;1.53;0.80;;;14.10;89.30;;;;;;5092468;28;20481;-63
2023/12/11 01:11:56;;;;;;;1.60;0.77;;;14.10;89.20;;;;;;5082073;28;20523;-63
2023/12/11 01:14:23;;;;;;;0.77;0.70;;;14.10;89.30;;;;;;5084324;28;21066;-64
2023/12/11 01:16:49;;;;;;;1.47;1.03;;;14.10;89.30;;;;;;5102197;28;20549;-63
2023/12/11 01:19:18;;;;;;;2.10;0.90;;;14.10;89.50;;;;;;5083592;28;20522;-64
2023/12/11 01:21:45;;;;;;;1.00;0.90;;;14.10;89.90;;;;;;5098595;28;20466;-64
2023/12/11 01:24:12;;;;;;;1.33;0.90;;;14.10;90.00;;;;;;5097482;28;20542;-63
2023/12/11 01:26:39;;;;;;;1.10;0.67;;;14.10;90.00;;;;;;5103414;28;20538;-64
2023/12/11 01:29:06;;;;;;;1.90;0.80;;;14.10;90.10;;;;;;5092012;28;20509;-64
2023/12/11 01:31:33;;;;;;;2.27;0.60;;;14.10;90.20;;;;;;5102864;28;20882;-63
2023/12/11 01:34:01;;;;;;;1.13;0.90;;;14.10;90.10;;;;;;5099086;28;20534;-63
2023/12/11 01:36:29;;;;;;;2.17;1.20;;;14.10;90.20;;;;;;5109132;28;20907;-63
2023/12/11 01:38:56;;;;;;;1.90;0.70;;;14.10;90.30;;;;;;5106529;28;20518;-64
2023/12/11 01:41:23;;;;;;;1.60;0.97;;;14.10;90.40;;;;;;5108351;28;20529;-64
2023/12/11 01:43:53;;;;;;;1.93;0.90;;;14.10;90.30;;;;;;5108719;28;20528;-64
2023/12/11 01:46:22;;;;;;;1.30;0.70;;;14.20;90.40;;;;;;5094471;28;20937;-64
2023/12/11 01:48:49;;;;;;;1.00;0.70;;;14.20;90.50;;;;;;5095504;28;20586;-64
2023/12/11 01:51:18;;;;;;;0.80;0.80;;;14.20;90.30;;;;;;5096284;28;20438;-64
2023/12/11 01:53:48;;;;;;;0.90;0.87;;;14.30;90.20;;;;;;5058648;28;20538;-64
2023/12/11 01:56:17;;;;;;;0.70;0.70;;;14.20;90.20;;;;;;5099472;28;20443;-64
2023/12/11 01:58:45;;;;;;;1.37;0.60;;;14.20;90.20;;;;;;5094306;28;20431;-63
2023/12/11 02:01:13;;;;;;;1.30;0.83;;;14.20;90.40;;;;;;5102074;28;20529;-63
2023/12/11 02:03:41;;;;;;;0.97;0.73;;;14.20;90.30;;;;;;5092710;28;20538;-63
2023/12/11 02:06:08;;;;;;;0.40;0.40;;;14.10;90.50;;;;;;5095229;28;20466;-64
2023/12/11 02:08:35;;;;;;;2.50;0.73;;;14.10;90.50;;;;;;5098733;28;20962;-63
2023/12/11 02:11:04;;;;;;;0.80;0.60;;;14.10;90.80;;;;;;5092124;28;20477;-63
2023/12/11 02:13:31;;;;;;;2.80;0.80;;;14.10;90.90;;;;;;5091958;28;20796;-64
2023/12/11 02:15:58;;;;;;;0.70;0.70;;;14.10;91.10;;;;;;5105835;28;20556;-64
2023/12/11 02:18:25;;;;;;;1.30;0.70;;;14.10;91.20;;;;;;5104893;28;20522;-64
2023/12/11 02:20:52;;;;;;;1.33;0.60;;;14.10;91.20;;;;;;5096859;28;21144;-64
2023/12/11 02:23:28;;;;;;;0.60;0.60;;;14.10;91.20;;;;;;5106476;28;20961;-64
2023/12/11 02:26:07;;;;;;;1.67;0.80;;;14.10;91.40;;;;;;5094816;28;20525;-64
2023/12/11 02:28:35;;;;;;;0.63;0.57;;;14.10;91.60;;;;;;5092734;28;20565;-64
2023/12/11 02:31:01;;;;;;;0.97;0.77;;;14.10;91.40;;;;;;5091371;28;21038;-64
2023/12/11 02:33:28;;;;;;;0.80;0.80;;;14.10;91.30;;;;;;5090954;28;20545;-64
2023/12/11 02:35:55;;;;;;;0.97;0.60;;;14.10;91.40;;;;;;5103883;28;20449;-64
2023/12/11 02:38:22;;;;;;;0.70;0.70;;;14.20;91.50;;;;;;5109693;28;20540;-63
2023/12/11 02:40:49;;;;;;;1.30;0.60;;;14.10;91.70;;;;;;5110074;28;20540;-64
2023/12/11 02:43:17;;;;;;;2.00;0.90;;;14.10;91.90;;;;;;5109929;28;20450;-64
2023/12/11 02:45:44;;;;;;;0.53;0.53;;;14.10;92.10;;;;;;5094770;28;20553;-64
2023/12/11 02:48:12;;;;;;;0.80;0.80;;;14.10;92.10;;;;;;5109872;28;20529;-64
2023/12/11 02:50:39;;;;;;;0.77;0.70;;;14.10;92.50;;;;;;5104012;28;20474;-64
2023/12/11 02:53:07;;;;;;;1.07;0.87;;;14.10;92.40;;;;;;5109567;28;20535;-64
2023/12/11 02:55:34;;;;;;;0.90;0.90;;;14.20;92.20;;;;;;5085431;28;21135;-64
2023/12/11 02:58:03;;;;;;;0.40;0.40;;;14.20;92.30;;;;;;5090467;28;20854;-64
2023/12/11 03:00:32;;;;;;;0.40;0.40;;;14.10;92.30;;;;;;5094466;28;20454;-63
2023/12/11 03:02:59;;;;;;;1.13;0.70;;;14.20;92.30;;;;;;5092754;28;20496;-63
2023/12/11 03:05:28;;;;;;;0.60;0.43;;;14.10;92.30;;;;;;5081359;28;20531;-64
2023/12/11 03:07:55;;;;;;;0.57;0.57;;;14.20;92.30;;;;;;5078896;28;20923;-63
2023/12/11 03:10:22;;;;;;;2.07;0.60;;;14.20;92.20;;;;;;5083747;28;20598;-63
2023/12/11 03:12:49;;;;;;;0.60;0.60;;;14.20;92.20;;;;;;5085992;28;20514;-63
2023/12/11 03:15:16;;;;;;;1.13;0.70;;;14.30;92.20;;;;;;5073905;28;21105;-63
2023/12/11 03:17:47;;;;;;;0.57;0.57;;;14.20;92.20;;;;;;5076593;28;21070;-63
2023/12/11 03:20:14;;;;;;;0.70;0.63;;;14.20;92.30;;;;;;5086249;28;20832;-63
2023/12/11 03:22:41;;;;;;;0.37;0.37;;;14.20;92.30;;;;;;5084814;28;21011;-64
2023/12/11 03:25:08;;;;;;;0.50;0.50;;;14.20;92.30;;;;;;5091935;28;20545;-62
2023/12/11 03:27:35;;;;;;;2.57;0.87;;;14.10;92.20;;;;;;5083791;28;20474;-64
2023/12/11 03:30:02;;;;;;;0.77;0.77;;;14.20;92.30;;;;;;5092936;28;20477;-64
2023/12/11 03:32:29;;;;;;;0.70;0.70;;;14.10;92.40;;;;;;5084983;28;21099;-63
2023/12/11 03:34:58;;;;;;;1.83;0.90;;;14.10;92.30;;;;;;5085781;28;20516;-63
2023/12/11 03:37:25;;;;;;;1.67;0.73;;;14.10;92.40;;;;;;5047068;28;20515;-63
2023/12/11 03:39:51;;;;;;;0.60;0.60;;;14.20;92.40;;;;;;5074602;28;20836;-63
2023/12/11 03:42:18;;;;;;;1.27;0.73;;;14.20;92.50;;;;;;5093879;28;20534;-64
2023/12/11 03:44:46;;;;;;;1.77;0.70;;;14.20;92.50;;;;;;5083011;28;20906;-64
2023/12/11 03:47:13;;;;;;;1.60;0.70;;;14.20;92.90;;;;;;5089654;28;20526;-64
2023/12/11 03:49:39;;;;;;;0.50;0.50;;;14.20;92.70;;;;;;5092355;28;20518;-64
2023/12/11 03:52:08;;;;;;;0.40;0.40;;;14.20;92.60;;;;;;5079448;28;20580;-64
2023/12/11 03:54:35;;;;;;;0.90;0.67;;;14.20;92.70;;;;;;5111448;28;20541;-64
2023/12/11 03:57:02;;;;;;;1.10;1.00;;;14.20;92.80;;;;;;5112480;28;20473;-64
2023/12/11 03:59:29;;;;;;;0.97;0.80;;;14.20;93.00;;;;;;5099829;28;20466;-64
2023/12/11 04:01:55;;;;;;;1.00;0.90;;;14.20;93.00;;;;;;5093529;28;20534;-63
2023/12/11 04:04:22;;;;;;;0.67;0.50;;;14.20;93.00;;;;;;5107994;28;20549;-63
2023/12/11 04:06:49;;;;;;;0.43;0.40;;;14.10;93.00;;;;;;5112887;28;21021;-63
2023/12/11 04:09:17;;;;;;;0.60;0.60;;;14.10;93.10;;;;;;5087500;28;21057;-63
2023/12/11 04:11:45;;;;;;;0.87;0.60;;;14.10;93.10;;;;;;5093296;28;20525;-63
2023/12/11 04:14:12;;;;;;;0.40;0.40;;;14.20;93.00;;;;;;5092974;28;20443;-63
2023/12/11 04:16:41;;;;;;;0.93;0.70;;;14.20;93.10;;;;;;5098714;28;20443;-63
2023/12/11 04:19:08;;;;;;;0.50;0.50;;;14.20;93.20;;;;;;5096921;28;21119;-64
2023/12/11 04:21:35;;;;;;;0.97;0.70;;;14.20;93.30;;;;;;5094696;28;20526;-63
2023/12/11 04:24:02;;;;;;;1.87;0.90;;;14.20;93.30;;;;;;5109717;28;20450;-63
2023/12/11 04:26:30;;;;;;;1.67;0.63;;;14.30;93.20;;;;;;5089657;28;20550;-63
2023/12/11 04:28:57;;;;;;;1.40;0.80;;;14.20;93.40;;;;;;5095764;28;20498;-63
2023/12/11 04:31:24;;;;;;;0.97;0.40;;;14.20;93.50;;;;;;5113829;28;20528;-64
2023/12/11 04:33:51;;;;;;;0.50;0.50;;;14.20;93.40;;;;;;5113186;28;20500;-63
2023/12/11 04:36:18;;;;;;;0.60;0.60;;;14.20;93.30;;;;;;5108621;28;20442;-64
2023/12/11 04:38:45;;;;;;;1.33;0.60;;;14.30;93.20;;;;;;5112540;28;20488;-63
2023/12/11 04:41:12;;;;;;;1.00;0.90;;;14.20;93.10;;;;;;5111368;28;20529;-63
2023/12/11 04:43:40;;;;;;;0.97;0.70;;;14.20;93.00;;;;;;5107701;28;20550;-64
2023/12/11 04:46:08;;;;;;;1.20;1.10;;;14.20;93.00;;;;;;5092700;28;20525;-64
2023/12/11 04:48:35;;;;;;;1.40;0.60;;;14.20;93.10;;;;;;5092038;28;20444;-64
2023/12/11 04:51:02;;;;;;;0.83;0.77;;;14.10;93.20;;;;;;5085403;28;20580;-64
2023/12/11 04:53:29;;;;;;;1.90;1.00;;;14.10;93.20;;;;;;5105460;28;20919;-64
2023/12/11 04:55:56;;;;;;;1.00;0.90;;;14.10;93.20;;;;;;5107843;28;20978;-64
2023/12/11 04:58:23;;;;;;;1.23;0.80;;;14.10;93.10;;;;;;5109697;28;20480;-64
2023/12/11 05:00:51;;;;;;;1.07;0.90;;;14.10;93.20;;;;;;5092917;28;20517;-63
2023/12/11 05:03:18;;;;;;;0.73;0.73;;;14.10;93.00;;;;;;5041040;28;20521;-64
2023/12/11 05:05:45;;;;;;;1.40;1.03;;;14.10;93.00;;;;;;5092804;28;20526;-63
2023/12/11 05:08:12;;;;;;;1.27;1.17;;;14.10;93.00;;;;;;5092837;28;20498;-64
2023/12/11 05:10:39;;;;;;;1.13;1.03;;;14.00;93.10;;;;;;5094350;28;20478;-63
2023/12/11 05:13:06;;;;;;;1.30;1.17;;;13.90;93.10;;;;;;5103728;28;20528;-64
2023/12/11 05:15:33;;;;;;;1.50;0.90;;;14.00;92.90;;;;;;5105054;28;20556;-64
2023/12/11 05:18:04;;;;;;;3.90;3.37;;;14.00;92.90;;;;;;5094307;28;20465;-63
2023/12/11 05:20:31;;;;;;;1.97;1.13;;;14.00;92.90;;;;;;5100768;28;20437;-64
2023/12/11 05:22:58;;;;;;;2.07;1.83;;;14.00;92.80;;;;;;5104872;28;20498;-63
2023/12/11 05:25:25;;;;;;;2.53;2.33;;;14.00;93.10;;;;;;5107350;28;20514;-64
2023/12/11 05:27:52;;;;;;;2.37;2.17;;;14.00;92.90;;;;;;5106998;28;20466;-64
2023/12/11 05:30:19;;;;;;;2.80;0.97;;;13.90;92.90;;;;;;5121936;28;20495;-64
2023/12/11 05:32:46;;;;;;;1.07;0.80;;;13.90;92.70;;;;;;5121579;28;20434;-64
2023/12/11 05:35:14;;;;;;;1.93;1.10;;;14.00;92.50;;;;;;5124356;28;20472;-63
2023/12/11 05:37:41;;;;;;;0.97;0.77;;;14.10;92.40;;;;;;5108136;28;20470;-64
2023/12/11 05:40:09;;;;;;;1.77;0.80;;;14.20;92.30;;;;;;5107015;28;20963;-63
2023/12/11 05:42:36;;;;;;;1.70;1.10;;;14.20;92.10;;;;;;5116343;28;20465;-64
2023/12/11 05:45:04;;;;;;;0.73;0.73;;;14.20;92.00;;;;;;5102817;28;20500;-63
2023/12/11 05:47:31;;;;;;;1.50;1.40;;;14.10;92.20;;;;;;5105210;28;20489;-64
2023/12/11 05:49:58;;;;;;;1.43;1.27;;;14.00;92.30;;;;;;5115685;28;20507;-64
2023/12/11 05:52:26;;;;;;;3.03;1.40;;;14.00;92.40;;;;;;5123292;28;20505;-64
2023/12/11 05:54:53;;;;;;;3.13;1.50;;;14.00;92.40;;;;;;5116484;28;20458;-63
2023/12/11 05:57:20;;;;;;;5.33;4.10;;;14.00;92.20;;;;;;5094774;28;21084;-64
2023/12/11 05:59:49;;;;;;;2.00;1.53;;;14.00;92.20;;;;;;5093018;28;21058;-64
2023/12/11 06:02:16;;;;;;;2.03;1.40;;;14.00;92.20;;;;;;5099161;28;20438;-63
2023/12/11 06:04:43;;;;;;;1.47;1.10;;;14.00;92.20;;;;;;5111507;28;20472;-64
2023/12/11 06:07:10;;;;;;;1.50;1.40;;;13.90;92.10;;;;;;5095645;28;20494;-64
2023/12/11 06:09:38;;;;;;;2.50;1.40;;;14.00;92.10;;;;;;5103626;28;20445;-64
2023/12/11 06:12:06;;;;;;;2.23;1.43;;;14.00;92.00;;;;;;5111784;28;20790;-63
2023/12/11 06:14:33;;;;;;;1.77;1.63;;;14.00;91.90;;;;;;5110325;28;20560;-64
2023/12/11 06:17:00;;;;;;;3.03;2.00;;;14.10;91.90;;;;;;5046249;28;20471;-64
2023/12/11 06:19:27;;;;;;;1.97;1.57;;;14.10;91.80;;;;;;5097374;28;20529;-64
2023/12/11 06:21:54;;;;;;;2.20;2.00;;;14.20;91.70;;;;;;5100910;28;20502;-64
2023/12/11 06:24:21;;;;;;;2.57;1.53;;;14.30;91.40;;;;;;5103993;28;20476;-64
2023/12/11 06:26:49;;;;;;;1.70;1.33;;;14.40;91.20;;;;;;5098286;28;20438;-63
2023/12/11 06:29:16;;;;;;;2.03;1.20;;;14.40;91.10;;;;;;5093179;28;20530;-63
2023/12/11 06:31:43;;;;;;;2.83;1.60;;;14.50;90.90;;;;;;5108795;28;20509;-63
2023/12/11 06:34:10;;;;;;;2.40;1.30;;;14.50;90.80;;;;;;5106659;28;20520;-62
2023/12/11 06:36:37;;;;;;;2.03;1.17;;;14.40;90.70;;;;;;5108768;28;21157;-63
2023/12/11 06:39:04;;;;;;;1.10;1.00;;;14.50;90.60;;;;;;5091447;28;20450;-64
2023/12/11 06:41:31;;;;;;;1.37;0.90;;;14.60;90.50;;;;;;5092358;28;20966;-63
2023/12/11 06:43:59;;;;;;;1.20;0.90;;;14.50;90.50;;;;;;5095709;28;20520;-64
2023/12/11 06:46:28;;;;;;;1.27;0.60;;;14.50;90.40;;;;;;5099302;28;20759;-64
2023/12/11 06:48:56;;;;;;;3.50;0.87;;;14.50;90.50;;;;;;5110168;28;20446;-62
2023/12/11 06:51:24;;;;;;;1.80;0.77;;;14.50;90.30;;;;;;5104153;28;20482;-64
2023/12/11 06:53:51;;;;;;;2.00;0.80;;;14.60;90.20;;;;;;5096732;28;20521;-64
2023/12/11 06:56:19;;;;;;;1.40;1.13;;;14.70;90.10;;;;;;5098204;28;20442;-63
2023/12/11 06:58:46;;;;;;;1.93;1.27;;;14.70;90.00;;;;;;5106484;28;20466;-63
2023/12/11 07:01:15;;;;;;;1.97;0.90;;;14.80;89.90;;;;;;5110164;28;20533;-64
2023/12/11 07:03:44;;;;;;;3.47;1.20;;;14.80;89.40;;;;;;5111023;28;20472;-64
2023/12/11 07:06:12;;;;;;;1.10;0.90;;;14.80;89.20;;;;;;5111122;28;20476;-64
2023/12/11 07:08:38;;;;;;;1.80;0.97;;;14.80;88.90;;;;;;5104060;28;20532;-64
2023/12/11 07:11:06;;;;;;;1.03;0.80;;;14.80;88.80;;;;;;5099016;28;21051;-64
2023/12/11 07:13:33;;;;;;;0.77;0.67;;;14.80;88.70;;;;;;5099974;28;20485;-64
2023/12/11 07:16:00;;;;;;;1.87;1.00;;;14.80;88.60;;;;;;5109178;28;20542;-64
2023/12/11 07:18:28;;;;;;;1.40;0.83;;;14.80;88.40;;;;;;5106255;28;20529;-64
2023/12/11 07:20:55;;;;;;;0.73;0.73;;;14.80;88.30;;;;;;5110592;28;20489;-64
2023/12/11 07:23:22;;;;;;;1.00;0.80;;;14.80;88.20;;;;;;5101303;28;20528;-64
2023/12/11 07:25:49;;;;;;;1.73;1.13;;;14.70;87.90;;;;;;5098502;28;20521;-64
2023/12/11 07:28:16;;;;;;;1.53;0.73;;;14.70;88.00;;;;;;5093702;28;20566;-64
2023/12/11 07:30:43;;;;;;;1.73;0.97;;;14.70;87.90;;;;;;5107343;28;20528;-64
2023/12/11 07:33:10;;;;;;;0.83;0.80;;;14.70;87.50;;;;;;5115278;28;20532;-64
2023/12/11 07:35:38;;;;;;;3.27;0.80;;;14.70;87.40;;;;;;5115081;28;20470;-64
2023/12/11 07:38:06;;;;;;;1.23;0.80;;;14.70;87.40;;;;;;5112664;28;20481;-64
2023/12/11 07:40:33;;;;;;;2.17;0.80;;;14.80;87.30;;;;;;5106607;28;20474;-64
2023/12/11 07:43:01;;;;;;;1.53;1.00;;;14.80;87.00;;;;;;5098462;28;20549;-64
2023/12/11 07:45:30;;;;;;;0.83;0.83;;;14.90;86.80;;;;;;5093788;28;20519;-64
2023/12/11 07:47:56;;;;;;;2.50;1.00;;;14.90;86.60;;;;;;5098458;28;20553;-64
2023/12/11 07:50:23;;;;;;;2.80;0.70;;;14.80;86.30;;;;;;5082593;28;20477;-64
2023/12/11 07:52:52;;;;;;;0.57;0.57;;;14.90;86.60;;;;;;5060964;28;20506;-64
2023/12/11 07:55:19;;;;;;;1.63;1.00;;;14.90;86.50;;;;;;5100719;28;20452;-64
2023/12/11 07:57:46;;;;;;;1.33;0.80;;;14.80;86.10;;;;;;5107637;28;20544;-64
2023/12/11 08:00:14;;;;;;;1.20;1.00;;;14.90;86.40;;;;;;5100439;28;20749;-64
2023/12/11 08:02:42;;;;;;;2.53;1.00;;;14.90;86.20;;;;;;5103438;28;20517;-63
2023/12/11 08:05:11;;;;;;;1.43;1.00;;;15.00;86.30;;;;;;5096808;28;20489;-64
2023/12/11 08:07:38;;;;;;;1.03;0.93;;;15.00;86.10;;;;;;5113543;28;21178;-64
2023/12/11 08:10:07;;;;;;;1.50;0.97;;;15.00;86.10;;;;;;5114007;28;20441;-64
2023/12/11 08:12:34;;;;;;;1.90;1.33;;;15.00;85.60;;;;;;5113404;28;20472;-64
2023/12/11 08:15:03;;;;;;;3.47;1.50;;;15.00;85.50;;;;;;5099854;28;20470;-63
2023/12/11 08:17:30;;;;;;;2.63;1.27;;;15.00;85.40;;;;;;5095934;28;20450;-64
2023/12/11 08:19:56;;;;;;;1.77;1.20;;;15.00;85.60;;;;;;5093159;28;20561;-63
2023/12/11 08:22:24;;;;;;;0.90;0.83;;;15.10;84.90;;;;;;5095735;28;20442;-65
2023/12/11 08:24:51;;;;;;;2.10;1.30;;;15.10;85.20;;;;;;5105573;28;20449;-64
2023/12/11 08:27:19;;;;;;;0.90;0.83;;;15.10;85.10;;;;;;5107262;28;20549;-64
2023/12/11 08:29:48;;;;;;;2.23;1.53;;;15.20;85.00;;;;;;5098949;28;20508;-64
2023/12/11 08:32:15;;;;;;;1.70;1.10;;;15.30;84.80;;;;;;5114070;28;20570;-64
2023/12/11 08:34:42;;;;;;;2.87;1.30;;;15.30;84.90;;;;;;5111495;28;20544;-64
2023/12/11 08:37:09;;;;;;;3.63;1.20;;;15.40;84.00;;;;;;5112110;28;20477;-64
2023/12/11 08:39:36;;;;;;;1.97;1.13;;;15.50;84.80;;;;;;5093372;28;20851;-64
2023/12/11 08:42:03;;;;;;;3.10;1.30;;;15.60;84.40;;;;;;5105289;28;20515;-64
2023/12/11 08:44:32;;;;;;;3.67;1.30;;;15.60;83.80;;;;;;5112033;28;20497;-64
2023/12/11 08:46:59;;;;;;;2.57;1.60;;;15.70;84.00;;;;;;5060446;28;20526;-64
2023/12/11 08:49:26;;;;;;;1.73;1.10;;;15.80;83.70;;;;;;5106450;28;20466;-64
2023/12/11 08:51:54;;;;;;;2.00;1.40;;;16.00;83.80;;;;;;5095741;28;20565;-64
2023/12/11 08:54:21;;;;;;;3.33;1.43;;;16.10;83.30;;;;;;5092783;28;20512;-64
2023/12/11 08:56:48;;;;;;;1.60;1.30;;;16.10;82.60;;;;;;5096583;28;20537;-64
2023/12/11 08:59:15;;;;;;;1.67;1.50;;;16.10;82.60;;;;;;5109322;28;20492;-64
2023/12/11 09:01:44;;;;;;;1.93;1.10;;;16.00;83.00;;;;;;5087501;28;20445;-64
2023/12/11 09:04:11;;;;;;;3.40;1.30;;;15.90;82.20;;;;;;5112436;28;20534;-65
2023/12/11 09:06:38;;;;;;;1.87;1.17;;;16.00;82.60;;;;;;5112409;28;20510;-64
2023/12/11 09:09:05;;;;;;;3.60;1.13;;;15.90;82.40;;;;;;5113095;28;20929;-64
2023/12/11 09:11:32;;;;;;;2.40;1.20;;;16.00;82.30;;;;;;5099782;28;20489;-64
2023/12/11 09:13:59;;;;;;;1.60;1.00;;;16.00;81.90;;;;;;5109149;28;20438;-64
2023/12/11 09:16:26;;;;;;;2.30;1.43;;;16.00;81.60;;;;;;5112313;28;20444;-64
2023/12/11 09:18:56;;;;;;;3.47;1.30;;;16.00;81.90;;;;;;5112271;28;20501;-64
2023/12/11 09:21:23;;;;;;;2.33;1.00;;;16.00;81.40;;;;;;5112385;28;20898;-64
2023/12/11 09:23:50;;;;;;;3.77;1.30;;;15.90;81.30;;;;;;5071973;28;20470;-64
2023/12/11 09:26:18;;;;;;;4.83;1.47;;;16.10;81.60;;;;;;5098722;28;20462;-64
2023/12/11 09:28:45;;;;;;;2.50;1.30;;;16.20;81.00;;;;;;5106752;28;20551;-64
2023/12/11 09:31:12;;;;;;;2.83;1.10;;;16.20;80.30;;;;;;5111855;28;20560;-64
2023/12/11 09:33:40;;;;;;;3.87;1.50;;;16.20;80.50;;;;;;5101839;28;21060;-64
2023/12/11 09:36:09;;;;;;;2.00;1.40;;;16.20;81.10;;;;;;5096254;28;20478;-63
2023/12/11 09:38:36;;;;;;;1.50;1.27;;;16.20;80.90;;;;;;5093018;28;20445;-63
2023/12/11 09:41:06;;;;;;;2.40;1.13;;;16.10;80.40;;;;;;5091755;28;20906;-64
2023/12/11 09:43:34;;;;;;;3.40;1.70;;;16.00;79.90;;;;;;5091557;28;20446;-64
2023/12/11 09:46:03;;;;;;;3.23;1.87;;;16.00;80.90;;;;;;5091813;28;20482;-64
2023/12/11 09:48:29;;;;;;;3.33;1.27;;;16.00;80.70;;;;;;5102433;28;20469;-64
2023/12/11 09:50:57;;;;;;;2.73;1.33;;;16.00;80.90;;;;;;5105177;28;20584;-64
2023/12/11 09:53:26;;;;;;;2.97;1.63;;;16.10;80.90;;;;;;5091837;28;20887;-63
2023/12/11 09:55:55;;;;;;;4.83;1.70;;;16.30;80.70;;;;;;5091353;28;20969;-64
2023/12/11 09:58:23;;;;;;;4.73;1.60;;;16.50;80.00;;;;;;5092038;28;20947;-64
2023/12/11 10:00:50;;;;;;;2.57;1.37;;;16.70;79.60;;;;;;5100014;28;20431;-64
2023/12/11 10:03:17;;;;;;;3.50;1.30;;;16.90;79.30;;;;;;5091101;28;20535;-64
2023/12/11 10:05:45;;;;;;;2.30;1.20;;;16.90;78.20;;;;;;5091345;28;20499;-64
2023/12/11 10:08:13;;;;;;;3.33;1.40;;;16.90;78.50;;;;;;5092013;28;20477;-65
2023/12/11 10:10:41;;;;;;;2.50;1.43;;;17.00;78.80;;;;;;5094524;28;20784;-64
2023/12/11 10:13:10;;;;;;;4.53;1.90;;;17.00;78.70;;;;;;5112095;28;20473;-64
2023/12/11 10:15:37;;;;;;;6.80;2.53;;;16.90;78.80;;;;;;5111951;28;20468;-64
2023/12/11 10:18:09;;;;;;;2.73;1.50;;;16.80;79.10;;;;;;5111829;28;20957;-64
2023/12/11 10:20:38;;;;;;;5.60;1.27;;;16.60;79.50;;;;;;5112175;28;20450;-64
2023/12/11 10:23:15;;;;;;;5.03;1.80;;;16.50;79.60;;;;;;5102749;28;20553;-65
2023/12/11 10:25:44;;;;;;;2.93;1.70;;;16.40;80.00;;;;;;5110552;28;20469;-64
2023/12/11 10:28:13;;;;;;;5.57;2.03;;;16.30;80.30;;;;;;5112371;28;20469;-64
2023/12/11 10:30:51;;;;;;;2.27;1.47;;;16.30;80.30;;;;;;5099267;28;20475;-64
2023/12/11 10:33:20;;;;;;;4.40;2.03;;;16.40;80.60;;;;;;5091772;28;20430;-63
2023/12/11 10:35:48;;;;;;;4.40;1.40;;;16.30;80.40;;;;;;5104845;28;20438;-64
2023/12/11 10:38:22;;;;;;;5.03;1.90;;;16.40;81.60;;;;;;5109750;28;20506;-64
2023/12/11 10:40:51;;;;;;;4.67;2.20;;;16.50;80.30;;;;;;5111415;28;20433;-64
2023/12/11 10:43:21;;;;;;;3.67;1.90;;;16.50;80.80;;;;;;5111958;28;20533;-63
2023/12/11 10:45:50;;;;;;;5.37;2.20;;;16.50;80.60;;;;;;5111444;28;20549;-64
2023/12/11 10:48:17;;;;;;;4.57;1.67;;;16.40;80.40;;;;;;5091647;28;20471;-63
2023/12/11 10:50:45;;;;;;;7.60;2.00;;;16.50;80.50;;;;;;5092014;28;20441;-64
2023/12/11 10:53:13;;;;;;;4.23;1.50;;;16.40;81.20;;;;;;5101629;28;20485;-64
2023/12/11 10:55:40;;;;;;;5.20;1.73;;;16.50;80.50;;;;;;5110184;28;20481;-63
2023/12/11 10:58:09;;;;;;;5.53;1.80;;;16.50;80.00;;;;;;5093989;28;20915;-63
2023/12/11 11:00:37;;;;;;;5.37;1.80;;;16.40;80.70;;;;;;5111680;28;20442;-64
2023/12/11 11:03:07;;;;;;;6.77;5.10;;;16.40;80.50;;;;;;5114460;28;20847;-63
2023/12/11 11:05:34;;;;;;;6.00;1.90;;;16.40;80.60;;;;;;5116291;28;20524;-64
2023/12/11 11:08:10;;;;;;;5.20;2.07;;;16.30;80.60;;;;;;5116248;28;20536;-63
2023/12/11 11:10:45;;;;;;;5.40;1.90;;;16.30;80.90;;;;;;5107561;28;20466;-64
2023/12/11 11:13:20;;;;;;;4.17;1.80;;;16.40;80.50;;;;;;5096059;28;20477;-64
2023/12/11 11:15:52;;;;;;;3.33;1.60;;;16.80;80.40;;;;;;5095610;28;20537;-64
2023/12/11 11:18:19;;;;;;;4.50;1.70;;;17.20;79.10;;;;;;5095828;28;20504;-64
2023/12/11 11:21:08;;;;;;;4.30;1.80;;;17.50;77.40;;;;;;5078681;28;20446;-63
2023/12/11 11:23:42;;;;;;;4.60;1.63;;;17.70;76.20;;;;;;5093898;28;20446;-64
2023/12/11 11:26:32;;;;;;;5.17;1.83;;;17.50;76.70;;;;;;5110805;28;20442;-65
2023/12/11 11:29:00;;;;;;;5.67;2.47;;;17.80;76.60;;;;;;5115367;28;20570;-64
2023/12/11 11:31:51;;;;;;;3.97;1.90;;;18.00;76.60;;;;;;5112820;28;20255;-64
2023/12/11 11:34:46;;;;;;;4.73;1.90;;;18.20;74.00;;;;;;5095378;28;20295;-64
2023/12/11 11:37:17;;;;;;;5.07;2.20;;;18.50;74.10;;;;;;5096137;28;20647;-64
2023/12/11 11:40:00;;;;;;;4.93;1.80;;;18.90;73.20;;;;;;5095474;28;20616;-64
2023/12/11 11:42:27;;;;;;;4.57;1.80;;;19.20;71.60;;;;;;5094948;28;20205;-63
2023/12/11 11:44:58;;;;;;;7.67;2.90;;;19.50;71.60;;;;;;5108546;28;20234;-64
2023/12/11 11:47:24;;;;;;;4.97;2.60;;;19.80;69.50;;;;;;5115402;28;20204;-64
2023/12/11 11:49:53;;;;;;;5.37;2.13;;;19.90;69.50;;;;;;5115470;28;20691;-64
2023/12/11 11:52:25;;;;;;;10.07;3.10;;;20.40;67.20;;;;;;5112688;28;20227;-64
2023/12/11 11:54:58;;;;;;;3.50;1.83;;;20.80;65.30;;;;;;5094853;28;20227;-64
2023/12/11 11:57:29;;;;;;;3.37;1.90;;;21.30;62.70;;;;;;5112390;28;20206;-64
2023/12/11 11:59:57;;;;;;;5.73;2.27;;;21.30;56.70;;;;;;5115181;28;20215;-64
2023/12/11 12:02:26;;;;;;;6.70;2.27;;;21.60;56.60;;;;;;5113832;28;20552;-63
2023/12/11 12:04:53;;;;;;;5.60;2.30;;;21.90;56.80;;;;;;5104681;28;20220;-63
2023/12/11 12:07:22;;;;;;;5.13;2.03;;;22.10;55.20;;;;;;5094880;28;20244;-63
2023/12/11 12:09:53;;;;;;;5.27;2.33;;;22.90;52.20;;;;;;5095336;28;20197;-63
2023/12/11 12:12:20;;;;;;;6.70;2.40;;;24.10;51.70;;;;;;5095219;28;20230;-64
2023/12/11 12:14:47;;;;;;;5.23;2.03;;;24.90;49.50;;;;;;5098321;28;20676;-64
2023/12/11 12:17:15;;;;;;;4.87;2.20;;;25.90;46.10;;;;;;5094552;28;20293;-64
2023/12/11 12:19:42;;;;;;;6.23;2.10;;;26.80;43.30;;;;;;5095603;28;20228;-64
2023/12/11 12:22:13;;;;;;;8.43;2.17;;;27.90;40.80;;;;;;5094645;28;20317;-64
2023/12/11 12:24:40;;;;;;;5.80;2.73;;;28.20;40.20;;;;;;5094559;28;20224;-65
2023/12/11 12:27:12;;;;;;;5.90;3.20;;;28.60;38.30;;;;;;5103626;28;20207;-65
2023/12/11 12:29:40;;;;;;;5.07;2.30;;;29.50;38.00;;;;;;5115066;28;20278;-65
2023/12/11 12:32:09;;;;;;;5.57;2.63;;;29.90;36.50;;;;;;5114529;28;20594;-64
2023/12/11 12:34:39;;;;;;;6.63;2.97;;;30.40;36.80;;;;;;5113454;28;20208;-64
2023/12/11 12:37:07;;;;;;;5.60;2.90;;;31.20;36.30;;;;;;5114111;28;20537;-66
2023/12/11 12:39:35;;;;;;;6.60;2.20;;;32.00;36.10;;;;;;5102771;28;20295;-65
2023/12/11 12:42:02;;;;;;;5.97;2.33;;;32.60;34.20;;;;;;5094330;28;20202;-65
2023/12/11 12:44:29;;;;;;;5.70;2.40;;;32.80;33.60;;;;;;5105599;28;20233;-66
2023/12/11 12:47:02;;;;;;;6.90;2.37;;;33.30;34.00;;;;;;5114121;28;20661;-65
2023/12/11 12:49:33;;;;;;;5.70;2.90;;;33.40;31.60;;;;;;5115144;28;20490;-64
2023/12/11 12:52:03;;;;;;;6.53;3.70;;;33.20;31.20;;;;;;5096737;28;20870;-64